This is the latest recevied weather packets stored in our database for station/object 9W2UHF-10. If no packets are shown the sender has not sent any weather packets the latest 1 day(s).
| Time | Temp. | Humidity | Pressure | Rain* | Wind** | Luminosity | Snow |
|---|---|---|---|---|---|---|---|
| 1777897515 | 31.67° C | 64% | 1010.3 hPa | - | - | - | - |
| 1777896572 | 30.56° C | 68% | 1010.9 hPa | - | - | - | - |
| 1777896344 | 32.22° C | 66% | 1011.4 hPa | - | - | - | - |
| 1777895829 | 32.22° C | 66% | 1011.9 hPa | - | - | - | - |
| 1777895372 | 30.56° C | 68% | 1010.6 hPa | - | - | - | - |
| 1777894172 | 31.11° C | 67% | 1010.3 hPa | - | - | - | - |
| 1777892972 | 31.11° C | 67% | 1010.3 hPa | - | - | - | - |
| 1777891772 | 31.11° C | 67% | 1009.9 hPa | - | - | - | - |
| 1777890572 | 31.11° C | 68% | 1009.6 hPa | - | - | - | - |
| 1777889372 | 31.11° C | 69% | 1009.7 hPa | - | - | - | - |
| 1777888725 | 32.22° C | 65% | 1011.9 hPa | - | - | - | - |
| 1777888172 | 31.11° C | 70% | 1009.3 hPa | - | - | - | - |
| 1777886971 | 31.11° C | 67% | 1009.6 hPa | - | - | - | - |
| 1777885771 | 31.11° C | 67% | 1009.8 hPa | - | - | - | - |
| 1777885587 | 32.22° C | 65% | 1012.2 hPa | - | - | - | - |
| 1777884571 | 31.67° C | 64% | 1010.3 hPa | - | - | - | - |
| 1777883371 | 31.67° C | 63% | 1010.6 hPa | - | - | - | - |
| 1777882171 | 31.67° C | 65% | 1010.7 hPa | - | - | - | - |
| 1777880971 | 31.67° C | 64% | 1011 hPa | - | - | - | - |
| 1777879770 | 32.22° C | 66% | 1011.4 hPa | - | - | - | - |
| 1777877373 | 32.22° C | 66% | 1011.9 hPa | - | - | - | - |
| 1777876173 | 32.22° C | 65% | 1011.9 hPa | - | - | - | - |
| 1777875790 | 31.67° C | 66% | 1013.1 hPa | - | - | - | - |
| 1777874973 | 32.22° C | 65% | 1012.2 hPa | - | - | - | - |
| 1777873773 | 32.22° C | 65% | 1012.8 hPa | - | - | - | - |
* Rain since midnight (hover to see other rain measurements)
** Current wind speed in m/s (hover to see current wind gust speed)